Time;durP1;ratioP1;P1;durP2;ratioP2;P2;SDS_P1;SDS_P2;PMS_P1;PMS_P2;Temp;Humidity;BMP_temperature;BMP_pressure;BME280_temperature;BME280_humidity;BME280_pressure;Samples;Min_cycle;Max_cycle;Signal;HPM_P1;HPM_P2
2023/04/12 00:02:26;;;;;;;9.30;3.90;;;;;;;7.24;71.72;98344.75;105358;1256;97949;-71
2023/04/12 00:04:56;;;;;;;11.50;4.70;;;;;;;7.20;72.05;98343.07;105161;1256;98361;-71
2023/04/12 00:07:25;;;;;;;10.60;4.60;;;;;;;7.17;71.75;98342.20;105292;1251;110585;-71
2023/04/12 00:09:53;;;;;;;8.60;4.30;;;;;;;7.15;72.33;98348.14;105296;1251;102570;-71
2023/04/12 00:12:20;;;;;;;7.90;3.80;;;;;;;7.14;71.72;98349.48;105365;1270;107701;-71
2023/04/12 00:14:48;;;;;;;9.40;4.50;;;;;;;7.11;72.43;98353.00;105541;1256;97977;-72
2023/04/12 00:17:18;;;;;;;6.90;3.80;;;;;;;7.09;72.12;98350.00;105378;1258;98452;-70
2023/04/12 00:19:46;;;;;;;9.20;4.10;;;;;;;7.06;72.09;98347.59;105268;1256;111058;-70
2023/04/12 00:22:14;;;;;;;9.00;4.10;;;;;;;7.04;72.13;98349.83;105344;1251;102025;-71
2023/04/12 00:24:42;;;;;;;7.10;3.50;;;;;;;7.03;72.27;98350.10;105322;1256;107641;-70
2023/04/12 00:27:10;;;;;;;8.80;3.70;;;;;;;7.00;71.91;98352.52;105482;1257;98027;-73
2023/04/12 00:29:38;;;;;;;8.60;4.20;;;;;;;6.99;72.19;98350.01;105199;1256;98535;-70
2023/04/12 00:32:06;;;;;;;7.90;3.70;;;;;;;6.97;71.98;98347.83;105258;1251;110878;-71
2023/04/12 00:34:36;;;;;;;6.60;3.40;;;;;;;6.96;71.86;98345.45;105364;1255;101964;-72
2023/04/12 00:37:04;;;;;;;7.80;3.30;;;;;;;6.94;72.35;98342.19;105230;1250;107559;-72
2023/04/12 00:39:32;;;;;;;7.50;3.60;;;;;;;6.93;72.07;98340.16;105328;1254;97951;-74
2023/04/12 00:42:04;;;;;;;7.50;3.60;;;;;;;6.91;72.26;98338.91;105323;1251;99245;-71
2023/04/12 00:44:33;;;;;;;9.10;3.70;;;;;;;6.88;72.51;98335.45;105152;1257;111265;-71
2023/04/12 00:47:03;;;;;;;7.00;3.20;;;;;;;6.84;72.30;98328.97;105142;1267;102031;-72
2023/04/12 00:49:32;;;;;;;7.50;3.30;;;;;;;6.81;72.13;98324.64;105152;1267;105565;-72
2023/04/12 00:52:04;;;;;;;7.10;3.60;;;;;;;6.78;72.08;98326.39;105254;1251;99152;-72
2023/04/12 00:54:35;;;;;;;7.00;2.80;;;;;;;6.75;71.91;98330.11;105473;1254;98426;-71
2023/04/12 00:57:03;;;;;;;3.80;2.30;;;;;;;6.71;72.50;98334.28;105304;1256;110702;-72
2023/04/12 00:59:31;;;;;;;6.40;2.70;;;;;;;6.64;72.41;98337.00;105475;1255;102241;-71
2023/04/12 01:02:03;;;;;;;5.30;2.40;;;;;;;6.59;72.50;98333.48;105496;1255;107290;-72
2023/04/12 01:04:33;;;;;;;5.50;2.90;;;;;;;6.53;72.55;98331.73;105197;1251;99306;-71
2023/04/12 01:07:18;;;;;;;3.90;2.50;;;;;;;6.50;72.67;98334.48;105375;1256;99157;-72
2023/04/12 01:09:57;;;;;;;4.40;2.30;;;;;;;6.46;72.46;98335.45;105410;1255;111227;-74
2023/04/12 01:12:34;;;;;;;6.20;2.80;;;;;;;6.43;72.45;98339.38;105310;1256;101563;-71
2023/04/12 01:15:25;;;;;;;5.80;2.70;;;;;;;6.42;72.29;98336.05;105260;1253;105807;-71
2023/04/12 01:18:09;;;;;;;5.30;2.70;;;;;;;6.40;72.75;98336.00;105143;1256;98054;-71
2023/04/12 01:20:47;;;;;;;5.50;2.50;;;;;;;6.41;72.39;98338.04;105189;1257;98764;-70
2023/04/12 01:23:53;;;;;;;4.20;2.80;;;;;;;6.42;72.99;98343.30;105009;1256;111280;-72
2023/04/12 01:26:44;;;;;;;7.00;2.70;;;;;;;6.37;72.98;98348.86;105224;1267;102308;-75
2023/04/12 01:29:20;;;;;;;6.50;3.10;;;;;;;6.33;73.09;98351.05;105350;1251;107633;-71
2023/04/12 01:32:00;;;;;;;6.30;2.80;;;;;;;6.31;72.71;98351.73;105202;1258;98059;-71
2023/04/12 01:34:31;;;;;;;6.10;3.00;;;;;;;6.29;73.02;98349.80;105570;1250;97932;-71
2023/04/12 01:37:01;;;;;;;6.70;3.20;;;;;;;6.23;73.09;98350.99;105531;1254;111254;-73
2023/04/12 01:39:32;;;;;;;5.50;3.20;;;;;;;6.20;72.98;98350.88;105340;1256;102216;-75
2023/04/12 01:41:59;;;;;;;7.10;3.60;;;;;;;6.17;72.84;98352.51;105320;1256;106237;-71
2023/04/12 01:44:27;;;;;;;4.90;3.00;;;;;;;6.14;73.02;98357.98;105362;1255;98056;-71
2023/04/12 01:46:55;;;;;;;4.90;2.50;;;;;;;6.11;73.03;98357.81;105159;1256;98437;-72
2023/04/12 01:49:34;;;;;;;5.40;2.90;;;;;;;6.08;72.65;98357.46;105441;1256;110874;-71
2023/04/12 01:52:11;;;;;;;5.10;2.70;;;;;;;6.05;72.75;98354.16;105403;1251;102133;-71
2023/04/12 01:54:42;;;;;;;4.60;2.50;;;;;;;6.01;72.63;98354.05;105458;1254;107195;-71
2023/04/12 01:57:10;;;;;;;4.00;2.40;;;;;;;5.98;72.98;98357.36;105461;1254;97861;-71
2023/04/12 01:59:40;;;;;;;4.20;2.30;;;;;;;5.95;73.30;98355.77;105227;1256;98418;-72
2023/04/12 02:02:10;;;;;;;2.90;1.90;;;;;;;5.90;73.04;98351.55;105129;1257;111419;-71
2023/04/12 02:04:41;;;;;;;5.60;2.30;;;;;;;5.86;73.68;98353.21;105276;1254;102213;-72
2023/04/12 02:07:08;;;;;;;2.70;1.90;;;;;;;5.80;73.32;98348.68;105425;1251;107648;-74
2023/04/12 02:09:37;;;;;;;4.20;2.00;;;;;;;5.76;73.51;98351.70;105318;1256;97971;-72
2023/04/12 02:12:06;;;;;;;2.70;1.50;;;;;;;5.72;73.32;98357.25;105171;1257;98082;-71
2023/04/12 02:14:34;;;;;;;4.70;2.20;;;;;;;5.68;73.24;98356.67;105363;1256;111586;-71
2023/04/12 02:17:03;;;;;;;3.30;1.70;;;;;;;5.67;73.30;98359.38;105289;1257;100995;-73
2023/04/12 02:19:31;;;;;;;3.00;1.60;;;;;;;5.63;73.17;98363.28;105379;1266;107076;-71
2023/04/12 02:21:59;;;;;;;6.10;2.00;;;;;;;5.60;73.18;98357.30;105333;1258;98053;-70
2023/04/12 02:24:27;;;;;;;2.90;2.10;;;;;;;5.57;73.60;98357.34;105233;1257;99276;-72
2023/04/12 02:26:57;;;;;;;3.60;2.20;;;;;;;5.55;73.42;98350.59;105451;1253;111321;-72
2023/04/12 02:29:26;;;;;;;3.00;1.40;;;;;;;5.54;73.33;98341.73;105330;1256;101495;-70
2023/04/12 02:31:54;;;;;;;2.40;1.60;;;;;;;5.51;73.46;98330.63;105147;1257;107533;-72
2023/04/12 02:34:22;;;;;;;2.40;1.60;;;;;;;5.49;73.22;98325.85;105251;1256;99283;-71
2023/04/12 02:36:50;;;;;;;2.70;2.10;;;;;;;5.46;73.13;98327.98;105487;1254;98449;-71
2023/04/12 02:39:20;;;;;;;2.00;1.70;;;;;;;5.43;73.04;98331.14;105256;1265;110737;-71
2023/04/12 02:41:49;;;;;;;2.70;1.70;;;;;;;5.42;73.19;98338.98;105346;1257;102259;-71
2023/04/12 02:44:17;;;;;;;2.70;1.90;;;;;;;5.42;73.26;98341.24;105451;1267;107435;-71
2023/04/12 02:46:44;;;;;;;3.30;1.90;;;;;;;5.41;73.58;98347.30;105444;1256;97954;-70
2023/04/12 02:49:12;;;;;;;2.30;1.80;;;;;;;5.38;73.27;98352.02;105426;1255;99668;-71
2023/04/12 02:51:41;;;;;;;4.90;2.10;;;;;;;5.36;73.24;98354.27;105447;1251;110463;-71
2023/04/12 02:54:10;;;;;;;2.40;1.50;;;;;;;5.36;73.40;98359.55;105334;1265;101182;-75
2023/04/12 02:56:38;;;;;;;3.60;2.00;;;;;;;5.36;73.29;98362.34;105414;1258;107325;-72
2023/04/12 02:59:06;;;;;;;2.70;1.60;;;;;;;5.37;73.25;98366.17;105515;1257;97951;-71
2023/04/12 03:01:34;;;;;;;3.30;1.90;;;;;;;5.38;73.37;98369.96;105406;1253;98421;-71
2023/04/12 03:04:02;;;;;;;5.90;2.40;;;;;;;5.39;73.38;98374.35;105247;1251;111293;-74
2023/04/12 03:06:30;;;;;;;2.90;1.60;;;;;;;5.39;73.35;98373.23;105170;1256;102257;-75
2023/04/12 03:08:59;;;;;;;3.90;2.20;;;;;;;5.39;73.36;98374.33;105328;1256;107787;-73
2023/04/12 03:11:27;;;;;;;3.70;2.10;;;;;;;5.39;73.46;98374.70;105238;1254;97953;-71
2023/04/12 03:13:54;;;;;;;1.80;1.70;;;;;;;5.37;73.33;98380.23;105156;1254;98395;-71
2023/04/12 03:16:28;;;;;;;3.80;1.90;;;;;;;5.37;73.41;98382.86;105400;1256;109761;-70
2023/04/12 03:18:56;;;;;;;;;;;;;;;5.37;73.53;98383.20;105273;1257;102705;-75
2023/04/12 03:21:25;;;;;;;3.10;2.10;;;;;;;5.35;73.58;98381.92;105426;1255;107674;-74
2023/04/12 03:23:53;;;;;;;3.40;2.10;;;;;;;5.35;73.52;98378.44;105348;1253;97951;-74
2023/04/12 03:26:21;;;;;;;4.40;2.30;;;;;;;5.33;73.56;98378.20;105327;1253;98421;-74
2023/04/12 03:28:49;;;;;;;9.40;4.00;;;;;;;5.29;74.01;98374.23;105376;1256;111240;-74
2023/04/12 03:31:20;;;;;;;6.30;3.20;;;;;;;5.26;73.86;98374.25;105169;1257;102312;-72
2023/04/12 03:33:48;;;;;;;5.40;2.60;;;;;;;5.23;73.92;98371.27;105275;1254;107110;-74
2023/04/12 03:36:16;;;;;;;4.90;2.50;;;;;;;5.20;74.01;98365.46;105452;1251;99126;-75
2023/04/12 03:38:44;;;;;;;3.10;2.30;;;;;;;5.17;74.24;98366.31;105662;1254;98417;-75
2023/04/12 03:41:12;;;;;;;5.90;3.00;;;;;;;5.14;74.08;98368.27;105449;1273;111218;-74
2023/04/12 03:43:41;;;;;;;5.90;2.70;;;;;;;5.14;73.86;98367.02;105351;1250;102190;-75
2023/04/12 03:46:09;;;;;;;3.20;2.00;;;;;;;5.14;74.00;98362.64;108736;1251;106586;-72
2023/04/12 03:48:37;;;;;;;5.30;2.60;;;;;;;5.15;73.89;98361.91;108812;1251;95816;-73
2023/04/12 03:51:06;;;;;;;3.40;2.20;;;;;;;5.15;74.06;98366.09;108769;1251;95704;-73
2023/04/12 03:53:34;;;;;;;5.30;2.00;;;;;;;5.16;73.81;98368.14;108806;1251;112631;-73
2023/04/12 03:56:11;;;;;;;3.90;2.50;;;;;;;5.18;73.71;98372.56;105581;1264;101901;-75
2023/04/12 03:58:39;;;;;;;3.30;2.20;;;;;;;5.24;73.57;98383.87;108763;1251;107678;-74
2023/04/12 04:01:08;;;;;;;6.80;2.50;;;;;;;5.27;73.67;98387.38;105160;1254;98068;-74
2023/04/12 04:03:35;;;;;;;5.30;2.50;;;;;;;5.30;73.63;98388.23;105505;1251;97912;-76
2023/04/12 04:06:04;;;;;;;5.00;2.40;;;;;;;5.32;73.66;98388.95;105182;1256;111349;-78
2023/04/12 04:08:32;;;;;;;4.60;2.40;;;;;;;5.33;73.77;98387.29;105422;1254;102226;-76
2023/04/12 04:11:00;;;;;;;3.70;2.50;;;;;;;5.34;73.70;98383.05;105302;1266;107626;-75
2023/04/12 04:13:28;;;;;;;3.40;2.40;;;;;;;5.32;73.58;98385.64;105110;1258;99256;-73
2023/04/12 04:16:03;;;;;;;4.20;2.50;;;;;;;5.31;73.70;98388.66;105459;1255;98488;-73
2023/04/12 04:18:31;;;;;;;4.90;2.30;;;;;;;5.30;73.67;98387.88;105339;1251;111048;-74
2023/04/12 04:20:59;;;;;;;4.30;2.40;;;;;;;5.28;73.91;98388.68;105370;1256;102336;-77
2023/04/12 04:23:37;;;;;;;8.40;2.70;;;;;;;5.27;73.84;98386.98;105391;1251;107602;-74
2023/04/12 04:26:10;;;;;;;3.80;2.60;;;;;;;5.28;73.73;98386.05;105205;1269;99367;-73
2023/04/12 04:28:41;;;;;;;5.30;2.70;;;;;;;5.29;73.98;98392.70;105101;1257;98421;-75
2023/04/12 04:31:09;;;;;;;6.10;2.70;;;;;;;5.28;73.82;98393.47;105471;1256;110879;-75
2023/04/12 04:33:38;;;;;;;5.40;3.00;;;;;;;5.28;73.99;98396.98;105376;1251;102183;-77
2023/04/12 04:36:08;;;;;;;4.70;2.60;;;;;;;5.26;74.16;98399.02;105355;1256;108177;-74
2023/04/12 04:38:36;;;;;;;5.50;2.60;;;;;;;5.26;73.98;98397.60;105312;1254;99256;-75
2023/04/12 04:41:04;;;;;;;5.20;2.70;;;;;;;5.26;73.98;98394.77;105310;1256;98546;-73
2023/04/12 04:43:32;;;;;;;8.20;3.30;;;;;;;5.26;73.98;98393.38;105404;1251;110999;-73
2023/04/12 04:46:01;;;;;;;7.00;3.10;;;;;;;5.25;74.19;98393.45;105537;1253;102733;-76
2023/04/12 04:48:29;;;;;;;5.30;2.80;;;;;;;5.24;73.90;98396.86;105414;1256;107617;-74
2023/04/12 04:50:59;;;;;;;5.70;2.30;;;;;;;5.25;73.98;98405.41;105029;1251;98634;-74
2023/04/12 04:53:27;;;;;;;4.70;2.80;;;;;;;5.26;74.11;98410.96;105484;1253;98359;-75
2023/04/12 04:56:00;;;;;;;6.20;2.80;;;;;;;5.28;74.15;98413.70;105144;1256;112490;-73
2023/04/12 04:58:28;;;;;;;5.50;2.40;;;;;;;5.28;74.09;98417.52;105433;1251;101915;-74
2023/04/12 05:00:56;;;;;;;7.60;3.20;;;;;;;5.28;74.26;98415.08;105287;1257;107421;-73
2023/04/12 05:03:27;;;;;;;9.50;3.50;;;;;;;5.28;74.30;98417.15;105100;1257;99178;-73
2023/04/12 05:05:57;;;;;;;7.50;3.30;;;;;;;5.30;74.03;98418.79;105325;1257;99291;-76
2023/04/12 05:08:27;;;;;;;5.90;3.10;;;;;;;5.32;74.06;98417.98;105589;1256;111356;-73
2023/04/12 05:10:56;;;;;;;8.30;3.00;;;;;;;5.33;74.17;98417.89;105570;1256;102265;-76
2023/04/12 05:13:25;;;;;;;8.10;3.40;;;;;;;5.35;74.27;98419.35;105361;1254;107092;-73
2023/04/12 05:15:52;;;;;;;9.40;3.50;;;;;;;5.38;74.23;98420.75;105531;1251;98053;-74
2023/04/12 05:18:20;;;;;;;7.30;3.50;;;;;;;5.41;74.28;98421.10;105455;1256;98514;-73
2023/04/12 05:20:48;;;;;;;9.00;3.90;;;;;;;5.43;74.40;98422.02;105277;1253;111358;-73
2023/04/12 05:23:48;;;;;;;9.10;4.30;;;;;;;5.45;74.16;98425.97;105506;1264;102323;-84
2023/04/12 05:26:16;;;;;;;8.00;3.40;;;;;;;5.44;74.33;98424.97;105543;1251;107383;-82
2023/04/12 05:28:44;;;;;;;11.00;4.30;;;;;;;5.45;74.25;98429.11;105658;1253;98886;-77
2023/04/12 05:31:12;;;;;;;11.50;4.80;;;;;;;5.45;74.52;98426.46;105338;1255;98548;-75
2023/04/12 05:33:58;;;;;;;14.60;5.60;;;;;;;5.46;74.26;98425.91;105710;1256;111310;-77
2023/04/12 05:36:34;;;;;;;14.70;6.00;;;;;;;5.49;74.16;98423.27;105653;1253;102658;-77
2023/04/12 05:39:02;;;;;;;11.70;5.00;;;;;;;5.53;74.18;98418.64;105340;1252;106834;-76
2023/04/12 05:41:30;;;;;;;10.10;4.20;;;;;;;5.57;74.24;98414.01;105700;1251;98867;-80
2023/04/12 05:43:59;;;;;;;9.60;3.70;;;;;;;5.62;74.23;98420.91;105644;1255;98453;-76
2023/04/12 05:46:26;;;;;;;7.30;3.40;;;;;;;5.64;74.15;98417.55;105192;1258;111315;-74
2023/04/12 05:48:55;;;;;;;6.10;3.00;;;;;;;5.67;74.38;98420.23;105550;1255;102177;-78
2023/04/12 05:51:23;;;;;;;10.50;3.70;;;;;;;5.69;74.25;98419.40;105485;1257;106620;-73
2023/04/12 05:54:07;;;;;;;5.70;3.00;;;;;;;5.73;74.25;98423.02;105687;1251;98007;-72
2023/04/12 05:56:36;;;;;;;9.70;3.00;;;;;;;5.76;74.31;98424.25;105554;1255;98277;-74
2023/04/12 05:59:04;;;;;;;7.00;3.40;;;;;;;5.81;74.26;98425.71;105566;1255;112420;-77
2023/04/12 06:01:33;;;;;;;8.10;3.10;;;;;;;5.87;74.23;98425.29;105604;1251;101963;-74
2023/04/12 06:04:01;;;;;;;6.60;3.20;;;;;;;5.94;74.47;98428.52;105595;1256;107522;-75
2023/04/12 06:06:30;;;;;;;8.90;3.30;;;;;;;5.98;74.43;98432.70;105469;1257;98630;-74
2023/04/12 06:08:59;;;;;;;7.00;3.20;;;;;;;6.02;74.19;98434.45;105516;1256;97846;-73
2023/04/12 06:11:27;;;;;;;10.30;3.70;;;;;;;6.02;74.25;98435.98;105322;1258;111261;-73
2023/04/12 06:13:55;;;;;;;13.30;4.70;;;;;;;6.03;74.27;98438.73;105435;1256;101528;-74
2023/04/12 06:16:23;;;;;;;15.40;5.10;;;;;;;6.05;74.48;98435.14;105432;1255;107276;-76
2023/04/12 06:18:52;;;;;;;16.00;4.90;;;;;;;6.06;74.44;98437.34;105452;1253;99268;-77
2023/04/12 06:21:20;;;;;;;13.50;4.90;;;;;;;6.06;74.17;98432.42;105507;1252;99266;-78
2023/04/12 06:23:48;;;;;;;10.40;3.90;;;;;;;6.06;74.21;98437.84;105474;1255;109965;-74
2023/04/12 06:26:16;;;;;;;10.90;4.40;;;;;;;6.08;74.38;98435.45;105561;1253;102260;-72
2023/04/12 06:28:45;;;;;;;11.00;4.20;;;;;;;6.10;74.57;98431.10;105849;1251;106302;-75
2023/04/12 06:31:15;;;;;;;10.30;4.40;;;;;;;6.11;74.54;98426.98;105720;1256;99243;-75
2023/04/12 06:33:44;;;;;;;8.40;3.50;;;;;;;6.12;74.45;98425.85;105498;1256;99605;-73
2023/04/12 06:36:14;;;;;;;9.70;3.60;;;;;;;6.15;74.51;98420.59;105124;1255;111044;-72
2023/04/12 06:38:42;;;;;;;7.40;3.60;;;;;;;6.19;74.59;98421.89;105205;1274;103752;-72
2023/04/12 06:41:11;;;;;;;10.10;3.70;;;;;;;6.23;74.56;98421.11;105436;1251;107723;-72
2023/04/12 06:43:39;;;;;;;13.50;4.20;;;;;;;6.31;74.72;98421.33;105693;1253;97934;-72
2023/04/12 06:46:07;;;;;;;11.30;4.30;;;;;;;6.37;74.33;98420.86;105551;1253;97948;-71
2023/04/12 06:48:36;;;;;;;10.80;4.60;;;;;;;6.39;74.60;98420.03;105538;1256;111277;-72
2023/04/12 06:51:06;;;;;;;9.60;3.80;;;;;;;6.43;74.37;98418.73;105491;1251;102260;-76
2023/04/12 06:53:37;;;;;;;11.50;4.00;;;;;;;6.46;74.47;98419.27;105496;1251;107096;-73
2023/04/12 06:56:05;;;;;;;12.10;4.10;;;;;;;6.48;74.59;98413.48;105458;1252;97938;-77
2023/04/12 06:58:32;;;;;;;11.80;4.30;;;;;;;6.56;74.49;98412.63;105765;1252;99193;-72
2023/04/12 07:01:08;;;;;;;9.70;3.90;;;;;;;6.74;74.77;98404.17;105406;1253;110762;-73
2023/04/12 07:03:37;;;;;;;12.00;4.00;;;;;;;6.92;74.62;98399.10;105564;1255;101625;-74
2023/04/12 07:06:05;;;;;;;23.80;7.80;;;;;;;6.94;74.53;98403.56;105625;1255;107327;-75
2023/04/12 07:08:50;;;;;;;32.30;9.50;;;;;;;6.91;74.66;98409.08;105583;1253;98016;-75
2023/04/12 07:11:21;;;;;;;20.50;6.20;;;;;;;6.83;74.17;98416.98;105336;1256;98425;-75
2023/04/12 07:13:50;;;;;;;19.90;6.40;;;;;;;6.77;74.39;98420.58;105585;1251;110689;-75
2023/04/12 07:16:19;;;;;;;15.10;5.30;;;;;;;6.71;74.51;98424.81;105544;1255;102222;-74
2023/04/12 07:18:47;;;;;;;16.50;5.50;;;;;;;6.66;74.52;98426.20;105368;1256;107665;-74
2023/04/12 07:21:16;;;;;;;15.20;5.10;;;;;;;6.63;74.41;98431.02;105630;1256;99153;-78
2023/04/12 07:23:46;;;;;;;14.10;5.90;;;;;;;6.60;74.52;98428.92;105408;1255;98381;-72
2023/04/12 07:26:14;;;;;;;14.60;6.00;;;;;;;6.59;74.63;98429.55;105606;1254;111294;-75
2023/04/12 07:28:42;;;;;;;17.20;6.40;;;;;;;6.59;74.62;98430.91;105596;1255;100873;-76
2023/04/12 07:31:10;;;;;;;17.20;6.80;;;;;;;6.60;74.55;98431.23;105385;1266;107352;-75
2023/04/12 07:33:39;;;;;;;20.60;7.20;;;;;;;6.59;74.31;98430.89;105506;1253;99345;-76
2023/04/12 07:36:44;;;;;;;;;;;;;;;;;;;;;
2023/04/12 07:42:00;;;;;;;25.90;10.00;;;;;;;6.61;74.65;98429.76;105363;1256;102246;-74
2023/04/12 07:44:30;;;;;;;19.90;6.30;;;;;;;6.63;74.70;98427.99;105502;1256;107388;-74
2023/04/12 07:46:58;;;;;;;17.50;6.60;;;;;;;6.66;74.54;98426.94;105427;1269;97855;-77
2023/04/12 07:49:26;;;;;;;27.20;12.30;;;;;;;6.68;74.80;98427.30;105217;1256;98418;-74
2023/04/12 07:51:54;;;;;;;15.40;6.10;;;;;;;6.68;74.76;98427.51;105253;1256;111300;-73
2023/04/12 07:54:26;;;;;;;13.60;5.50;;;;;;;6.67;74.54;98423.16;105600;1256;101811;-75
2023/04/12 07:57:02;;;;;;;16.00;6.30;;;;;;;6.67;74.72;98422.83;105428;1256;107427;-73
2023/04/12 07:59:30;;;;;;;15.10;6.20;;;;;;;6.69;74.74;98427.25;105438;1253;99262;-80
2023/04/12 08:02:00;;;;;;;15.00;6.50;;;;;;;6.75;74.63;98424.42;105461;1254;99780;-74
2023/04/12 08:04:28;;;;;;;23.00;10.00;;;;;;;6.77;74.50;98423.70;105275;1257;111270;-75
2023/04/12 08:06:56;;;;;;;14.60;6.70;;;;;;;6.77;74.50;98424.25;105423;1254;102460;-77
2023/04/12 08:09:24;;;;;;;16.80;6.70;;;;;;;6.76;74.75;98420.77;105525;1256;107906;-73
2023/04/12 08:11:53;;;;;;;19.10;8.20;;;;;;;6.77;74.85;98421.60;105428;1255;99155;-73
2023/04/12 08:14:21;;;;;;;19.30;9.50;;;;;;;6.79;74.95;98418.86;105423;1255;98447;-72
2023/04/12 08:16:49;;;;;;;21.80;11.10;;;;;;;6.79;74.83;98410.52;105499;1255;110999;-74
2023/04/12 08:19:19;;;;;;;21.90;12.70;;;;;;;6.82;74.80;98404.67;105371;1274;102224;-73
2023/04/12 08:21:47;;;;;;;19.00;7.80;;;;;;;6.87;74.99;98403.11;105496;1256;107197;-79
2023/04/12 08:24:14;;;;;;;24.40;12.70;;;;;;;6.93;74.84;98403.80;105473;1255;97970;-81
2023/04/12 08:26:43;;;;;;;15.60;7.60;;;;;;;7.00;74.75;98406.45;105300;1256;98534;-74
2023/04/12 08:29:11;;;;;;;20.90;10.90;;;;;;;7.11;74.76;98412.09;105348;1274;110826;-75
2023/04/12 08:31:39;;;;;;;20.70;9.40;;;;;;;7.18;74.52;98411.42;105591;1256;102169;-77
2023/04/12 08:34:07;;;;;;;20.50;8.80;;;;;;;7.19;74.78;98413.69;105432;1268;107060;-75
2023/04/12 08:36:36;;;;;;;20.90;8.10;;;;;;;7.14;74.82;98414.71;105564;1251;97999;-75
2023/04/12 08:39:03;;;;;;;19.90;8.50;;;;;;;7.13;74.81;98411.45;105400;1255;98437;-75
2023/04/12 08:41:33;;;;;;;24.00;13.00;;;;;;;7.19;74.73;98409.98;105270;1255;111267;-75
2023/04/12 08:44:04;;;;;;;25.90;13.90;;;;;;;7.23;74.83;98412.84;105249;1265;101230;-78
2023/04/12 08:46:35;;;;;;;21.90;10.20;;;;;;;7.28;74.66;98410.89;105527;1253;107657;-75
2023/04/12 08:49:03;;;;;;;21.80;10.80;;;;;;;7.34;75.09;98413.20;105486;1254;99326;-76
2023/04/12 08:51:32;;;;;;;23.00;11.20;;;;;;;7.44;74.93;98412.67;105248;1257;98431;-76
2023/04/12 08:54:00;;;;;;;18.80;9.40;;;;;;;7.58;74.86;98411.33;105811;1252;111236;-76
2023/04/12 08:56:29;;;;;;;20.00;10.80;;;;;;;7.65;74.75;98409.08;105256;1256;102836;-75
2023/04/12 08:59:00;;;;;;;20.30;10.20;;;;;;;7.69;74.69;98407.92;105479;1270;106821;-75
2023/04/12 09:01:28;;;;;;;24.10;13.70;;;;;;;7.74;74.78;98411.04;105346;1255;98872;-74
2023/04/12 09:03:57;;;;;;;22.60;11.50;;;;;;;7.82;74.74;98407.00;105403;1255;98438;-77
2023/04/12 09:06:26;;;;;;;19.60;9.20;;;;;;;7.85;74.51;98410.79;105500;1256;110706;-74
2023/04/12 09:08:59;;;;;;;22.60;13.70;;;;;;;7.82;74.48;98417.41;105133;1266;242083;-74
2023/04/12 09:11:28;;;;;;;21.50;12.30;;;;;;;7.72;74.43;98419.34;105348;1251;107670;-80
2023/04/12 09:13:56;;;;;;;18.60;8.50;;;;;;;7.63;74.49;98423.65;105474;1256;97970;-73
2023/04/12 09:16:47;;;;;;;18.90;10.70;;;;;;;7.56;74.52;98423.65;105826;1252;98343;-81
2023/04/12 09:20:31;;;;;;;20.50;12.30;;;;;;;7.52;74.72;98424.07;105707;1253;111883;-73
2023/04/12 09:23:36;;;;;;;;;;;;;;;;;;;;;
2023/04/12 09:26:58;;;;;;;18.50;9.50;;;;;;;7.52;74.76;98422.84;105677;1256;106384;-75
2023/04/12 09:30:14;;;;;;;;;;;;;;;;;;;;;
2023/04/12 09:33:44;;;;;;;17.60;7.90;;;;;;;7.50;74.62;98426.88;105947;1252;97919;-78
2023/04/12 09:36:15;;;;;;;16.50;8.40;;;;;;;7.46;74.68;98426.61;105567;1253;110895;-78
2023/04/12 09:39:05;;;;;;;19.10;11.30;;;;;;;7.46;74.83;98429.45;105304;1253;100313;-78
2023/04/12 09:41:33;;;;;;;16.20;8.30;;;;;;;7.45;74.57;98424.94;105389;1256;108112;-78
2023/04/12 09:44:04;;;;;;;16.40;8.30;;;;;;;7.43;74.66;98425.55;105459;1256;99278;-78
2023/04/12 09:46:54;;;;;;;16.50;7.90;;;;;;;7.48;74.86;98425.80;105448;1256;98303;-79
2023/04/12 09:49:55;;;;;;;15.70;7.90;;;;;;;7.49;74.97;98426.42;105414;1254;111193;-78
2023/04/12 09:53:31;;;;;;;;;;;;;;;;;;;;;
2023/04/12 09:57:52;;;;;;;;;;;;;;;;;;;;;
2023/04/12 10:00:47;;;;;;;16.90;8.50;;;;;;;7.72;74.84;98410.02;105512;1269;97895;-80
2023/04/12 10:03:48;;;;;;;17.90;8.70;;;;;;;7.87;74.84;98407.99;105731;1255;98376;-83
2023/04/12 10:06:44;;;;;;;;;;;;;;;;;;;;;
2023/04/12 10:09:28;;;;;;;35.10;18.50;;;;;;;8.11;74.65;98397.34;105657;1256;102401;-80
2023/04/12 10:12:51;;;;;;;22.20;11.50;;;;;;;8.18;74.86;98399.77;105454;1259;106673;-82
2023/04/12 10:16:46;;;;;;;19.80;10.40;;;;;;;8.18;74.45;98399.22;105770;1264;97936;-83
2023/04/12 10:20:34;;;;;;;;;;;;;;;;;;;;;
2023/04/12 10:24:09;;;;;;;;;;;;;;;;;;;;;
2023/04/12 10:27:03;;;;;;;16.90;8.10;;;;;;;8.62;74.50;98387.39;105926;1255;101574;-83
2023/04/12 10:30:18;;;;;;;16.70;8.20;;;;;;;8.73;74.29;98390.29;105588;1252;107673;-83
